sensor_id;sensor_type;location;lat;lon;timestamp;temperature;humidity
9980;DHT22;5030;51.532;6.766;2022-09-27T00:02:09;9.90;99.90
9980;DHT22;5030;51.532;6.766;2022-09-27T00:04:51;9.80;99.90
9980;DHT22;5030;51.532;6.766;2022-09-27T00:07:26;9.90;99.90
9980;DHT22;5030;51.532;6.766;2022-09-27T00:09:55;9.90;99.90
9980;DHT22;5030;51.532;6.766;2022-09-27T00:12:23;9.80;99.90
9980;DHT22;5030;51.532;6.766;2022-09-27T00:14:54;9.90;99.90
9980;DHT22;5030;51.532;6.766;2022-09-27T00:17:24;9.90;99.90
9980;DHT22;5030;51.532;6.766;2022-09-27T00:19:49;9.90;99.90
9980;DHT22;5030;51.532;6.766;2022-09-27T00:22:15;9.90;99.90
9980;DHT22;5030;51.532;6.766;2022-09-27T00:24:51;9.80;99.90
9980;DHT22;5030;51.532;6.766;2022-09-27T00:27:20;9.90;99.90
9980;DHT22;5030;51.532;6.766;2022-09-27T00:29:48;9.90;99.90
9980;DHT22;5030;51.532;6.766;2022-09-27T00:32:19;9.90;99.90
9980;DHT22;5030;51.532;6.766;2022-09-27T00:34:50;9.90;99.90
9980;DHT22;5030;51.532;6.766;2022-09-27T00:37:27;9.90;99.90
9980;DHT22;5030;51.532;6.766;2022-09-27T00:39:55;9.90;99.90
9980;DHT22;5030;51.532;6.766;2022-09-27T00:42:21;9.90;99.90
9980;DHT22;5030;51.532;6.766;2022-09-27T00:44:59;9.90;99.90
9980;DHT22;5030;51.532;6.766;2022-09-27T00:47:36;9.90;99.90
9980;DHT22;5030;51.532;6.766;2022-09-27T00:52:35;9.90;99.90
9980;DHT22;5030;51.532;6.766;2022-09-27T00:55:16;9.90;99.90
9980;DHT22;5030;51.532;6.766;2022-09-27T00:57:43;9.90;99.90
9980;DHT22;5030;51.532;6.766;2022-09-27T01:00:11;10.00;99.90
9980;DHT22;5030;51.532;6.766;2022-09-27T01:02:42;9.90;99.90
9980;DHT22;5030;51.532;6.766;2022-09-27T01:05:10;9.90;99.90
9980;DHT22;5030;51.532;6.766;2022-09-27T01:07:37;10.00;99.90
9980;DHT22;5030;51.532;6.766;2022-09-27T01:10:03;10.00;99.90
9980;DHT22;5030;51.532;6.766;2022-09-27T01:15:19;9.90;99.90
9980;DHT22;5030;51.532;6.766;2022-09-27T01:18:29;9.90;99.90
9980;DHT22;5030;51.532;6.766;2022-09-27T01:21:22;9.90;99.90
9980;DHT22;5030;51.532;6.766;2022-09-27T01:32:17;9.80;99.90
9980;DHT22;5030;51.532;6.766;2022-09-27T01:35:13;9.80;99.90
9980;DHT22;5030;51.532;6.766;2022-09-27T01:43:53;9.80;99.90
9980;DHT22;5030;51.532;6.766;2022-09-27T01:46:25;9.80;99.90
9980;DHT22;5030;51.532;6.766;2022-09-27T01:48:54;9.80;99.90
9980;DHT22;5030;51.532;6.766;2022-09-27T01:51:28;9.80;99.90
9980;DHT22;5030;51.532;6.766;2022-09-27T01:54:01;9.80;99.90
9980;DHT22;5030;51.532;6.766;2022-09-27T02:01:31;9.80;99.90
9980;DHT22;5030;51.532;6.766;2022-09-27T02:04:00;9.70;99.90
9980;DHT22;5030;51.532;6.766;2022-09-27T02:06:34;9.70;99.90
9980;DHT22;5030;51.532;6.766;2022-09-27T02:09:16;9.70;99.90
9980;DHT22;5030;51.532;6.766;2022-09-27T02:11:47;9.70;99.90
9980;DHT22;5030;51.532;6.766;2022-09-27T02:14:22;9.70;99.90
9980;DHT22;5030;51.532;6.766;2022-09-27T02:16:52;9.70;99.90
9980;DHT22;5030;51.532;6.766;2022-09-27T02:22:10;9.70;99.90
9980;DHT22;5030;51.532;6.766;2022-09-27T02:24:47;9.70;99.90
9980;DHT22;5030;51.532;6.766;2022-09-27T02:27:20;9.70;99.90
9980;DHT22;5030;51.532;6.766;2022-09-27T02:30:02;9.70;99.90
9980;DHT22;5030;51.532;6.766;2022-09-27T02:32:30;9.70;99.90
9980;DHT22;5030;51.532;6.766;2022-09-27T02:35:00;9.70;99.90
9980;DHT22;5030;51.532;6.766;2022-09-27T02:37:26;9.70;99.90
9980;DHT22;5030;51.532;6.766;2022-09-27T02:39:52;9.70;99.90
9980;DHT22;5030;51.532;6.766;2022-09-27T02:42:18;9.70;99.90
9980;DHT22;5030;51.532;6.766;2022-09-27T02:44:44;9.70;99.90
9980;DHT22;5030;51.532;6.766;2022-09-27T02:47:45;9.70;99.90
9980;DHT22;5030;51.532;6.766;2022-09-27T02:53:07;9.70;99.90
9980;DHT22;5030;51.532;6.766;2022-09-27T03:04:46;9.50;99.90
9980;DHT22;5030;51.532;6.766;2022-09-27T03:07:13;9.50;99.90
9980;DHT22;5030;51.532;6.766;2022-09-27T03:09:48;9.50;99.90
9980;DHT22;5030;51.532;6.766;2022-09-27T03:12:15;9.50;99.90
9980;DHT22;5030;51.532;6.766;2022-09-27T03:14:54;9.40;99.90
9980;DHT22;5030;51.532;6.766;2022-09-27T03:17:20;9.40;99.90
9980;DHT22;5030;51.532;6.766;2022-09-27T03:19:48;9.40;99.90
9980;DHT22;5030;51.532;6.766;2022-09-27T03:22:14;9.40;99.90
9980;DHT22;5030;51.532;6.766;2022-09-27T03:24:40;9.40;99.90
9980;DHT22;5030;51.532;6.766;2022-09-27T03:27:05;9.40;99.90
9980;DHT22;5030;51.532;6.766;2022-09-27T03:29:31;9.40;99.90
9980;DHT22;5030;51.532;6.766;2022-09-27T03:31:57;9.40;99.90
9980;DHT22;5030;51.532;6.766;2022-09-27T03:34:24;9.40;99.90
9980;DHT22;5030;51.532;6.766;2022-09-27T03:36:50;9.40;99.90
9980;DHT22;5030;51.532;6.766;2022-09-27T03:39:16;9.30;99.90
9980;DHT22;5030;51.532;6.766;2022-09-27T03:41:41;9.20;99.90
9980;DHT22;5030;51.532;6.766;2022-09-27T03:44:07;9.20;99.90
9980;DHT22;5030;51.532;6.766;2022-09-27T03:46:33;9.10;99.90
9980;DHT22;5030;51.532;6.766;2022-09-27T03:48:59;9.10;99.90
9980;DHT22;5030;51.532;6.766;2022-09-27T03:51:25;9.10;99.90
9980;DHT22;5030;51.532;6.766;2022-09-27T03:53:51;9.20;99.90
9980;DHT22;5030;51.532;6.766;2022-09-27T03:56:17;9.10;99.90
9980;DHT22;5030;51.532;6.766;2022-09-27T03:58:43;9.10;99.90
9980;DHT22;5030;51.532;6.766;2022-09-27T04:01:09;9.10;99.90
9980;DHT22;5030;51.532;6.766;2022-09-27T04:03:35;9.00;99.90
9980;DHT22;5030;51.532;6.766;2022-09-27T04:06:02;9.00;99.90
9980;DHT22;5030;51.532;6.766;2022-09-27T04:08:28;8.90;99.90
9980;DHT22;5030;51.532;6.766;2022-09-27T04:10:55;8.90;99.90
9980;DHT22;5030;51.532;6.766;2022-09-27T04:13:21;8.90;99.90
9980;DHT22;5030;51.532;6.766;2022-09-27T04:15:47;8.90;99.90
9980;DHT22;5030;51.532;6.766;2022-09-27T04:18:13;8.90;99.90
9980;DHT22;5030;51.532;6.766;2022-09-27T04:20:39;8.80;99.90
9980;DHT22;5030;51.532;6.766;2022-09-27T04:23:05;8.80;99.90
9980;DHT22;5030;51.532;6.766;2022-09-27T04:25:31;8.80;99.90
9980;DHT22;5030;51.532;6.766;2022-09-27T04:27:58;8.80;99.90
9980;DHT22;5030;51.532;6.766;2022-09-27T04:30:25;8.80;99.90
9980;DHT22;5030;51.532;6.766;2022-09-27T04:32:51;8.80;99.90
9980;DHT22;5030;51.532;6.766;2022-09-27T04:35:16;8.70;99.90
9980;DHT22;5030;51.532;6.766;2022-09-27T04:38:01;8.80;99.90
9980;DHT22;5030;51.532;6.766;2022-09-27T04:40:27;8.70;99.90
9980;DHT22;5030;51.532;6.766;2022-09-27T04:42:53;8.70;99.90
9980;DHT22;5030;51.532;6.766;2022-09-27T04:45:19;8.80;99.90
9980;DHT22;5030;51.532;6.766;2022-09-27T04:47:49;8.70;99.90
9980;DHT22;5030;51.532;6.766;2022-09-27T04:50:15;8.70;99.90
9980;DHT22;5030;51.532;6.766;2022-09-27T04:52:42;8.70;99.90
9980;DHT22;5030;51.532;6.766;2022-09-27T04:55:08;8.70;99.90
9980;DHT22;5030;51.532;6.766;2022-09-27T04:57:34;8.70;99.90
9980;DHT22;5030;51.532;6.766;2022-09-27T05:00:00;8.70;99.90
9980;DHT22;5030;51.532;6.766;2022-09-27T05:02:27;8.70;99.90
9980;DHT22;5030;51.532;6.766;2022-09-27T05:04:53;8.80;99.90
9980;DHT22;5030;51.532;6.766;2022-09-27T05:07:27;8.80;99.90
9980;DHT22;5030;51.532;6.766;2022-09-27T05:09:54;8.80;99.90
9980;DHT22;5030;51.532;6.766;2022-09-27T05:12:20;8.70;99.90
9980;DHT22;5030;51.532;6.766;2022-09-27T05:14:46;8.80;99.90
9980;DHT22;5030;51.532;6.766;2022-09-27T05:17:12;8.80;99.90
9980;DHT22;5030;51.532;6.766;2022-09-27T05:19:38;8.80;99.90
9980;DHT22;5030;51.532;6.766;2022-09-27T05:22:07;8.70;99.90
9980;DHT22;5030;51.532;6.766;2022-09-27T05:24:33;8.70;99.90
9980;DHT22;5030;51.532;6.766;2022-09-27T05:27:00;8.70;99.90
9980;DHT22;5030;51.532;6.766;2022-09-27T05:29:26;8.70;99.90
9980;DHT22;5030;51.532;6.766;2022-09-27T05:31:52;8.70;99.90
9980;DHT22;5030;51.532;6.766;2022-09-27T05:34:19;8.70;99.90
9980;DHT22;5030;51.532;6.766;2022-09-27T05:36:48;8.70;99.90
9980;DHT22;5030;51.532;6.766;2022-09-27T05:39:15;8.70;99.90
9980;DHT22;5030;51.532;6.766;2022-09-27T05:41:42;8.70;99.90
9980;DHT22;5030;51.532;6.766;2022-09-27T05:44:08;8.70;99.90
9980;DHT22;5030;51.532;6.766;2022-09-27T05:46:34;8.80;99.90
9980;DHT22;5030;51.532;6.766;2022-09-27T05:49:00;8.70;99.90
9980;DHT22;5030;51.532;6.766;2022-09-27T05:51:26;8.70;99.90
9980;DHT22;5030;51.532;6.766;2022-09-27T05:53:51;8.70;99.90
9980;DHT22;5030;51.532;6.766;2022-09-27T05:56:17;8.80;99.90
9980;DHT22;5030;51.532;6.766;2022-09-27T05:58:43;8.80;99.90
9980;DHT22;5030;51.532;6.766;2022-09-27T06:01:08;8.80;99.90
9980;DHT22;5030;51.532;6.766;2022-09-27T06:03:35;8.80;99.90
9980;DHT22;5030;51.532;6.766;2022-09-27T06:06:02;8.80;99.90
9980;DHT22;5030;51.532;6.766;2022-09-27T06:08:32;8.80;99.90
9980;DHT22;5030;51.532;6.766;2022-09-27T06:11:02;8.80;99.90
9980;DHT22;5030;51.532;6.766;2022-09-27T06:13:29;8.90;99.90
9980;DHT22;5030;51.532;6.766;2022-09-27T06:15:54;8.90;99.90
9980;DHT22;5030;51.532;6.766;2022-09-27T06:18:20;8.90;99.90
9980;DHT22;5030;51.532;6.766;2022-09-27T06:20:46;8.90;99.90
9980;DHT22;5030;51.532;6.766;2022-09-27T06:23:17;8.90;99.90
9980;DHT22;5030;51.532;6.766;2022-09-27T06:25:44;8.90;99.90
9980;DHT22;5030;51.532;6.766;2022-09-27T06:28:10;9.00;99.90
9980;DHT22;5030;51.532;6.766;2022-09-27T06:30:41;9.00;99.90
9980;DHT22;5030;51.532;6.766;2022-09-27T06:33:08;9.00;99.90
9980;DHT22;5030;51.532;6.766;2022-09-27T06:35:34;9.00;99.90
9980;DHT22;5030;51.532;6.766;2022-09-27T06:38:05;9.00;99.90
9980;DHT22;5030;51.532;6.766;2022-09-27T06:40:34;9.00;99.90
9980;DHT22;5030;51.532;6.766;2022-09-27T06:43:04;9.10;99.90
9980;DHT22;5030;51.532;6.766;2022-09-27T06:45:32;9.10;99.90
9980;DHT22;5030;51.532;6.766;2022-09-27T06:48:03;9.10;99.90
9980;DHT22;5030;51.532;6.766;2022-09-27T06:50:31;9.10;99.90
9980;DHT22;5030;51.532;6.766;2022-09-27T06:52:57;9.10;99.90
9980;DHT22;5030;51.532;6.766;2022-09-27T06:55:23;9.10;99.90
9980;DHT22;5030;51.532;6.766;2022-09-27T06:57:56;9.20;99.90
9980;DHT22;5030;51.532;6.766;2022-09-27T07:00:41;9.20;99.90
9980;DHT22;5030;51.532;6.766;2022-09-27T07:03:11;9.20;99.90
9980;DHT22;5030;51.532;6.766;2022-09-27T07:05:37;9.20;99.90
9980;DHT22;5030;51.532;6.766;2022-09-27T07:08:04;9.30;99.90
9980;DHT22;5030;51.532;6.766;2022-09-27T07:10:33;9.30;99.90
9980;DHT22;5030;51.532;6.766;2022-09-27T07:13:04;9.30;99.90
9980;DHT22;5030;51.532;6.766;2022-09-27T07:15:30;9.40;99.90
9980;DHT22;5030;51.532;6.766;2022-09-27T07:17:57;9.40;99.90
9980;DHT22;5030;51.532;6.766;2022-09-27T07:20:27;9.30;99.90
9980;DHT22;5030;51.532;6.766;2022-09-27T07:22:56;9.40;99.90
9980;DHT22;5030;51.532;6.766;2022-09-27T07:25:23;9.40;99.90
9980;DHT22;5030;51.532;6.766;2022-09-27T07:27:49;9.50;99.90
9980;DHT22;5030;51.532;6.766;2022-09-27T07:30:15;9.60;99.90
9980;DHT22;5030;51.532;6.766;2022-09-27T07:32:42;9.60;99.90
9980;DHT22;5030;51.532;6.766;2022-09-27T07:35:09;9.70;99.90
9980;DHT22;5030;51.532;6.766;2022-09-27T07:37:36;9.70;99.90
9980;DHT22;5030;51.532;6.766;2022-09-27T07:40:04;9.80;99.90
9980;DHT22;5030;51.532;6.766;2022-09-27T07:42:35;9.80;99.90
9980;DHT22;5030;51.532;6.766;2022-09-27T07:45:06;9.70;99.90
9980;DHT22;5030;51.532;6.766;2022-09-27T07:47:32;9.70;99.90
9980;DHT22;5030;51.532;6.766;2022-09-27T07:49:58;9.60;99.90
9980;DHT22;5030;51.532;6.766;2022-09-27T07:52:24;9.60;99.90
9980;DHT22;5030;51.532;6.766;2022-09-27T07:54:49;9.50;99.90
9980;DHT22;5030;51.532;6.766;2022-09-27T07:57:15;9.50;99.90
9980;DHT22;5030;51.532;6.766;2022-09-27T07:59:41;9.50;99.90
9980;DHT22;5030;51.532;6.766;2022-09-27T08:02:14;9.50;99.90
9980;DHT22;5030;51.532;6.766;2022-09-27T08:04:40;9.50;99.90
9980;DHT22;5030;51.532;6.766;2022-09-27T08:07:11;9.60;99.90
9980;DHT22;5030;51.532;6.766;2022-09-27T08:09:36;9.80;99.90
9980;DHT22;5030;51.532;6.766;2022-09-27T08:12:02;9.90;99.90
9980;DHT22;5030;51.532;6.766;2022-09-27T08:14:29;9.90;99.90
9980;DHT22;5030;51.532;6.766;2022-09-27T08:16:55;10.00;99.90
9980;DHT22;5030;51.532;6.766;2022-09-27T08:19:21;9.90;99.90
9980;DHT22;5030;51.532;6.766;2022-09-27T08:21:47;9.90;99.90
9980;DHT22;5030;51.532;6.766;2022-09-27T08:24:13;10.10;99.90
9980;DHT22;5030;51.532;6.766;2022-09-27T08:26:39;10.30;99.90
9980;DHT22;5030;51.532;6.766;2022-09-27T08:29:05;10.40;99.90
9980;DHT22;5030;51.532;6.766;2022-09-27T08:31:31;10.40;99.90
9980;DHT22;5030;51.532;6.766;2022-09-27T08:33:56;10.40;99.90
9980;DHT22;5030;51.532;6.766;2022-09-27T08:36:22;10.20;99.90
9980;DHT22;5030;51.532;6.766;2022-09-27T08:38:51;10.20;99.90
9980;DHT22;5030;51.532;6.766;2022-09-27T08:41:38;10.30;99.90
9980;DHT22;5030;51.532;6.766;2022-09-27T08:46:58;10.20;99.90
9980;DHT22;5030;51.532;6.766;2022-09-27T08:49:41;10.20;99.90
9980;DHT22;5030;51.532;6.766;2022-09-27T08:52:15;10.20;99.90
9980;DHT22;5030;51.532;6.766;2022-09-27T08:54:42;10.10;99.90
9980;DHT22;5030;51.532;6.766;2022-09-27T08:57:10;10.10;99.90
9980;DHT22;5030;51.532;6.766;2022-09-27T09:00:11;10.10;99.90
9980;DHT22;5030;51.532;6.766;2022-09-27T09:02:37;10.10;99.90
9980;DHT22;5030;51.532;6.766;2022-09-27T09:05:27;10.00;99.90
9980;DHT22;5030;51.532;6.766;2022-09-27T09:10:50;10.10;99.90
9980;DHT22;5030;51.532;6.766;2022-09-27T09:13:55;10.10;99.90
9980;DHT22;5030;51.532;6.766;2022-09-27T09:25:10;10.10;99.90
9980;DHT22;5030;51.532;6.766;2022-09-27T09:30:25;10.00;99.90
9980;DHT22;5030;51.532;6.766;2022-09-27T09:33:03;10.00;99.90
9980;DHT22;5030;51.532;6.766;2022-09-27T09:35:39;10.10;99.90
9980;DHT22;5030;51.532;6.766;2022-09-27T09:39:13;10.20;99.90
9980;DHT22;5030;51.532;6.766;2022-09-27T09:41:11;10.20;99.90
9980;DHT22;5030;51.532;6.766;2022-09-27T09:43:46;10.00;99.90
9980;DHT22;5030;51.532;6.766;2022-09-27T09:46:27;10.10;99.90
9980;DHT22;5030;51.532;6.766;2022-09-27T09:49:20;10.20;99.90
9980;DHT22;5030;51.532;6.766;2022-09-27T09:51:51;10.20;99.90
9980;DHT22;5030;51.532;6.766;2022-09-27T09:54:28;10.20;99.90
9980;DHT22;5030;51.532;6.766;2022-09-27T09:57:10;10.30;99.90
9980;DHT22;5030;51.532;6.766;2022-09-27T09:59:39;10.30;99.90
9980;DHT22;5030;51.532;6.766;2022-09-27T10:02:39;10.30;99.90
9980;DHT22;5030;51.532;6.766;2022-09-27T10:05:06;10.40;99.90
9980;DHT22;5030;51.532;6.766;2022-09-27T10:07:33;10.40;99.90
9980;DHT22;5030;51.532;6.766;2022-09-27T10:10:02;10.50;99.90
9980;DHT22;5030;51.532;6.766;2022-09-27T10:12:28;10.40;99.90
9980;DHT22;5030;51.532;6.766;2022-09-27T10:14:57;10.40;99.90
9980;DHT22;5030;51.532;6.766;2022-09-27T10:17:27;10.40;99.90
9980;DHT22;5030;51.532;6.766;2022-09-27T10:19:57;10.50;99.90
9980;DHT22;5030;51.532;6.766;2022-09-27T10:22:46;10.60;99.90
9980;DHT22;5030;51.532;6.766;2022-09-27T10:25:13;10.60;99.90
9980;DHT22;5030;51.532;6.766;2022-09-27T10:27:47;10.60;99.90
9980;DHT22;5030;51.532;6.766;2022-09-27T10:30:34;10.70;99.90
9980;DHT22;5030;51.532;6.766;2022-09-27T10:33:04;10.90;99.90
9980;DHT22;5030;51.532;6.766;2022-09-27T10:35:32;11.00;99.90
9980;DHT22;5030;51.532;6.766;2022-09-27T10:40:44;11.50;99.90
9980;DHT22;5030;51.532;6.766;2022-09-27T10:43:39;11.50;99.90
9980;DHT22;5030;51.532;6.766;2022-09-27T10:46:10;11.30;99.90
9980;DHT22;5030;51.532;6.766;2022-09-27T10:48:38;11.10;99.90
9980;DHT22;5030;51.532;6.766;2022-09-27T10:53:46;11.30;99.90
9980;DHT22;5030;51.532;6.766;2022-09-27T10:56:33;11.30;99.90
9980;DHT22;5030;51.532;6.766;2022-09-27T10:58:59;11.40;99.90
9980;DHT22;5030;51.532;6.766;2022-09-27T11:01:41;11.40;99.90
9980;DHT22;5030;51.532;6.766;2022-09-27T11:04:38;11.50;99.90
9980;DHT22;5030;51.532;6.766;2022-09-27T11:09:53;11.60;99.90
9980;DHT22;5030;51.532;6.766;2022-09-27T11:12:20;11.60;99.90
9980;DHT22;5030;51.532;6.766;2022-09-27T11:15:14;11.50;99.90
9980;DHT22;5030;51.532;6.766;2022-09-27T11:17:59;11.30;99.90
9980;DHT22;5030;51.532;6.766;2022-09-27T11:21:08;11.40;99.90
9980;DHT22;5030;51.532;6.766;2022-09-27T11:26:53;11.40;99.90
9980;DHT22;5030;51.532;6.766;2022-09-27T11:29:50;11.30;99.90
9980;DHT22;5030;51.532;6.766;2022-09-27T11:35:43;11.30;99.90
9980;DHT22;5030;51.532;6.766;2022-09-27T11:46:22;11.00;99.90
9980;DHT22;5030;51.532;6.766;2022-09-27T12:08:44;11.30;99.90
9980;DHT22;5030;51.532;6.766;2022-09-27T12:11:56;11.30;99.90
9980;DHT22;5030;51.532;6.766;2022-09-27T12:14:16;11.10;99.90
9980;DHT22;5030;51.532;6.766;2022-09-27T12:16:45;11.20;99.90
9980;DHT22;5030;51.532;6.766;2022-09-27T12:19:33;11.10;99.90
9980;DHT22;5030;51.532;6.766;2022-09-27T12:22:03;11.10;99.90
9980;DHT22;5030;51.532;6.766;2022-09-27T12:24:31;11.10;99.90
9980;DHT22;5030;51.532;6.766;2022-09-27T12:27:02;11.20;99.90
9980;DHT22;5030;51.532;6.766;2022-09-27T12:29:35;11.30;99.90
9980;DHT22;5030;51.532;6.766;2022-09-27T12:32:26;11.40;99.90
9980;DHT22;5030;51.532;6.766;2022-09-27T12:40:42;11.50;99.90
9980;DHT22;5030;51.532;6.766;2022-09-27T12:43:21;11.20;99.90
9980;DHT22;5030;51.532;6.766;2022-09-27T12:46:11;11.30;99.90
9980;DHT22;5030;51.532;6.766;2022-09-27T12:49:04;11.20;99.90
9980;DHT22;5030;51.532;6.766;2022-09-27T12:51:52;11.10;99.90
9980;DHT22;5030;51.532;6.766;2022-09-27T13:02:45;11.50;99.90
9980;DHT22;5030;51.532;6.766;2022-09-27T13:13:44;11.00;99.90
9980;DHT22;5030;51.532;6.766;2022-09-27T13:16:10;11.10;99.90
9980;DHT22;5030;51.532;6.766;2022-09-27T13:18:55;11.30;99.90
9980;DHT22;5030;51.532;6.766;2022-09-27T13:32:33;11.80;99.90
9980;DHT22;5030;51.532;6.766;2022-09-27T13:37:56;11.80;99.90
9980;DHT22;5030;51.532;6.766;2022-09-27T13:45:38;11.90;99.90
9980;DHT22;5030;51.532;6.766;2022-09-27T13:48:31;11.80;99.90
9980;DHT22;5030;51.532;6.766;2022-09-27T13:51:03;12.00;99.90
9980;DHT22;5030;51.532;6.766;2022-09-27T13:53:37;12.20;99.90
9980;DHT22;5030;51.532;6.766;2022-09-27T13:56:04;12.40;99.90
9980;DHT22;5030;51.532;6.766;2022-09-27T13:58:53;12.70;99.90
9980;DHT22;5030;51.532;6.766;2022-09-27T14:01:29;12.80;99.90
9980;DHT22;5030;51.532;6.766;2022-09-27T14:04:13;12.80;99.90
9980;DHT22;5030;51.532;6.766;2022-09-27T14:06:44;12.60;99.90
9980;DHT22;5030;51.532;6.766;2022-09-27T14:09:43;12.40;99.90
9980;DHT22;5030;51.532;6.766;2022-09-27T14:12:22;12.30;99.90
9980;DHT22;5030;51.532;6.766;2022-09-27T14:14:50;12.10;99.90
9980;DHT22;5030;51.532;6.766;2022-09-27T14:17:17;12.10;99.90
9980;DHT22;5030;51.532;6.766;2022-09-27T14:19:44;12.00;99.90
9980;DHT22;5030;51.532;6.766;2022-09-27T14:22:18;11.90;99.90
9980;DHT22;5030;51.532;6.766;2022-09-27T14:24:50;12.10;99.90
9980;DHT22;5030;51.532;6.766;2022-09-27T14:27:26;12.30;99.90
9980;DHT22;5030;51.532;6.766;2022-09-27T14:32:25;12.20;99.90
9980;DHT22;5030;51.532;6.766;2022-09-27T14:35:13;12.30;99.90
9980;DHT22;5030;51.532;6.766;2022-09-27T14:38:06;12.20;99.90
9980;DHT22;5030;51.532;6.766;2022-09-27T14:40:53;12.00;99.90
9980;DHT22;5030;51.532;6.766;2022-09-27T14:43:20;12.00;99.90
9980;DHT22;5030;51.532;6.766;2022-09-27T14:45:48;12.00;99.90
9980;DHT22;5030;51.532;6.766;2022-09-27T14:50:57;11.90;99.90
9980;DHT22;5030;51.532;6.766;2022-09-27T14:53:27;11.80;99.90
9980;DHT22;5030;51.532;6.766;2022-09-27T14:55:54;11.80;99.90
9980;DHT22;5030;51.532;6.766;2022-09-27T14:58:21;11.90;99.90
9980;DHT22;5030;51.532;6.766;2022-09-27T15:00:51;11.90;99.90
9980;DHT22;5030;51.532;6.766;2022-09-27T15:03:26;12.00;99.90
9980;DHT22;5030;51.532;6.766;2022-09-27T15:05:54;12.10;99.90
9980;DHT22;5030;51.532;6.766;2022-09-27T15:08:22;12.40;99.90
9980;DHT22;5030;51.532;6.766;2022-09-27T15:10:49;12.60;99.90
9980;DHT22;5030;51.532;6.766;2022-09-27T15:13:16;12.70;99.90
9980;DHT22;5030;51.532;6.766;2022-09-27T15:15:44;12.90;99.90
9980;DHT22;5030;51.532;6.766;2022-09-27T15:20:59;12.80;99.90
9980;DHT22;5030;51.532;6.766;2022-09-27T15:23:33;12.40;99.90
9980;DHT22;5030;51.532;6.766;2022-09-27T15:26:13;12.20;99.90
9980;DHT22;5030;51.532;6.766;2022-09-27T15:28:50;12.10;99.90
9980;DHT22;5030;51.532;6.766;2022-09-27T15:31:17;11.90;99.90
9980;DHT22;5030;51.532;6.766;2022-09-27T15:33:54;11.80;99.90
9980;DHT22;5030;51.532;6.766;2022-09-27T15:39:37;11.80;99.90
9980;DHT22;5030;51.532;6.766;2022-09-27T15:42:04;11.80;99.90
9980;DHT22;5030;51.532;6.766;2022-09-27T15:44:49;11.90;99.90
9980;DHT22;5030;51.532;6.766;2022-09-27T15:47:38;11.90;99.90
9980;DHT22;5030;51.532;6.766;2022-09-27T15:52:48;11.90;99.90
9980;DHT22;5030;51.532;6.766;2022-09-27T15:55:18;12.00;99.90
9980;DHT22;5030;51.532;6.766;2022-09-27T15:58:05;11.90;99.90
9980;DHT22;5030;51.532;6.766;2022-09-27T16:00:33;11.80;99.90
9980;DHT22;5030;51.532;6.766;2022-09-27T16:03:00;11.80;99.90
9980;DHT22;5030;51.532;6.766;2022-09-27T16:05:26;11.80;99.90
9980;DHT22;5030;51.532;6.766;2022-09-27T16:07:55;11.70;99.90
9980;DHT22;5030;51.532;6.766;2022-09-27T16:10:29;11.60;99.90
9980;DHT22;5030;51.532;6.766;2022-09-27T16:12:56;11.50;99.90
9980;DHT22;5030;51.532;6.766;2022-09-27T16:15:23;11.40;99.90
9980;DHT22;5030;51.532;6.766;2022-09-27T16:17:49;11.40;99.90
9980;DHT22;5030;51.532;6.766;2022-09-27T16:20:21;11.30;99.90
9980;DHT22;5030;51.532;6.766;2022-09-27T16:22:52;11.20;99.90
9980;DHT22;5030;51.532;6.766;2022-09-27T16:25:18;11.10;99.90
9980;DHT22;5030;51.532;6.766;2022-09-27T16:27:44;10.90;99.90
9980;DHT22;5030;51.532;6.766;2022-09-27T16:30:10;10.90;99.90
9980;DHT22;5030;51.532;6.766;2022-09-27T16:32:44;10.80;99.90
9980;DHT22;5030;51.532;6.766;2022-09-27T16:35:12;10.70;99.90
9980;DHT22;5030;51.532;6.766;2022-09-27T16:37:38;10.70;99.90
9980;DHT22;5030;51.532;6.766;2022-09-27T16:40:05;10.60;99.90
9980;DHT22;5030;51.532;6.766;2022-09-27T16:42:33;10.60;99.90
9980;DHT22;5030;51.532;6.766;2022-09-27T16:44:59;10.60;99.90
9980;DHT22;5030;51.532;6.766;2022-09-27T16:47:26;10.60;99.90
9980;DHT22;5030;51.532;6.766;2022-09-27T16:49:52;10.60;99.90
9980;DHT22;5030;51.532;6.766;2022-09-27T16:52:36;10.50;99.90
9980;DHT22;5030;51.532;6.766;2022-09-27T16:55:02;10.50;99.90
9980;DHT22;5030;51.532;6.766;2022-09-27T16:57:27;10.50;99.90
9980;DHT22;5030;51.532;6.766;2022-09-27T16:59:53;10.50;99.90
9980;DHT22;5030;51.532;6.766;2022-09-27T17:02:22;10.50;99.90
9980;DHT22;5030;51.532;6.766;2022-09-27T17:04:49;10.50;99.90
9980;DHT22;5030;51.532;6.766;2022-09-27T17:07:15;10.40;99.90
9980;DHT22;5030;51.532;6.766;2022-09-27T17:09:41;10.40;99.90
9980;DHT22;5030;51.532;6.766;2022-09-27T17:12:06;10.40;99.90
9980;DHT22;5030;51.532;6.766;2022-09-27T17:14:32;10.30;99.90
9980;DHT22;5030;51.532;6.766;2022-09-27T17:16:58;10.30;99.90
9980;DHT22;5030;51.532;6.766;2022-09-27T17:19:24;10.30;99.90
9980;DHT22;5030;51.532;6.766;2022-09-27T17:21:50;10.30;99.90
9980;DHT22;5030;51.532;6.766;2022-09-27T17:24:27;10.20;99.90
9980;DHT22;5030;51.532;6.766;2022-09-27T17:26:54;10.20;99.90
9980;DHT22;5030;51.532;6.766;2022-09-27T17:29:20;10.20;99.90
9980;DHT22;5030;51.532;6.766;2022-09-27T17:31:46;10.20;99.90
9980;DHT22;5030;51.532;6.766;2022-09-27T17:34:12;10.20;99.90
9980;DHT22;5030;51.532;6.766;2022-09-27T17:36:40;10.10;99.90
9980;DHT22;5030;51.532;6.766;2022-09-27T17:39:11;10.20;99.90
9980;DHT22;5030;51.532;6.766;2022-09-27T17:41:37;10.20;99.90
9980;DHT22;5030;51.532;6.766;2022-09-27T17:44:03;10.20;99.90
9980;DHT22;5030;51.532;6.766;2022-09-27T17:46:34;10.10;99.90
9980;DHT22;5030;51.532;6.766;2022-09-27T17:49:01;10.10;99.90
9980;DHT22;5030;51.532;6.766;2022-09-27T17:51:51;10.10;99.90
9980;DHT22;5030;51.532;6.766;2022-09-27T17:54:19;10.10;99.90
9980;DHT22;5030;51.532;6.766;2022-09-27T17:56:45;10.00;99.90
9980;DHT22;5030;51.532;6.766;2022-09-27T17:59:13;10.00;99.90
9980;DHT22;5030;51.532;6.766;2022-09-27T18:01:41;10.10;99.90
9980;DHT22;5030;51.532;6.766;2022-09-27T18:04:09;10.00;99.90
9980;DHT22;5030;51.532;6.766;2022-09-27T18:06:37;10.00;99.90
9980;DHT22;5030;51.532;6.766;2022-09-27T18:09:05;9.90;99.90
9980;DHT22;5030;51.532;6.766;2022-09-27T18:11:33;9.90;99.90
9980;DHT22;5030;51.532;6.766;2022-09-27T18:13:59;9.90;99.90
9980;DHT22;5030;51.532;6.766;2022-09-27T18:16:31;9.80;99.90
9980;DHT22;5030;51.532;6.766;2022-09-27T18:19:00;9.70;99.90
9980;DHT22;5030;51.532;6.766;2022-09-27T18:21:27;9.60;99.90
9980;DHT22;5030;51.532;6.766;2022-09-27T18:23:56;9.50;99.90
9980;DHT22;5030;51.532;6.766;2022-09-27T18:26:23;9.50;99.90
9980;DHT22;5030;51.532;6.766;2022-09-27T18:28:53;9.40;99.90
9980;DHT22;5030;51.532;6.766;2022-09-27T18:31:20;9.50;99.90
9980;DHT22;5030;51.532;6.766;2022-09-27T18:33:47;9.40;99.90
9980;DHT22;5030;51.532;6.766;2022-09-27T18:36:21;9.40;99.90
9980;DHT22;5030;51.532;6.766;2022-09-27T18:38:57;9.40;99.90
9980;DHT22;5030;51.532;6.766;2022-09-27T18:41:25;9.30;99.90
9980;DHT22;5030;51.532;6.766;2022-09-27T18:43:59;9.30;99.90
9980;DHT22;5030;51.532;6.766;2022-09-27T18:46:27;9.30;99.90
9980;DHT22;5030;51.532;6.766;2022-09-27T18:48:55;9.30;99.90
9980;DHT22;5030;51.532;6.766;2022-09-27T18:51:22;9.30;99.90
9980;DHT22;5030;51.532;6.766;2022-09-27T18:54:06;9.30;99.90
9980;DHT22;5030;51.532;6.766;2022-09-27T18:56:32;9.30;99.90
9980;DHT22;5030;51.532;6.766;2022-09-27T18:59:04;9.30;99.90
9980;DHT22;5030;51.532;6.766;2022-09-27T19:01:34;9.30;99.90
9980;DHT22;5030;51.532;6.766;2022-09-27T19:04:02;9.30;99.90
9980;DHT22;5030;51.532;6.766;2022-09-27T19:06:28;9.30;99.90
9980;DHT22;5030;51.532;6.766;2022-09-27T19:08:55;9.30;99.90
9980;DHT22;5030;51.532;6.766;2022-09-27T19:11:23;9.30;99.90